Time;durP1;ratioP1;P1;durP2;ratioP2;P2;SDS_P1;SDS_P2;PMS_P1;PMS_P2;Temp;Humidity;BMP_temperature;BMP_pressure;BME280_temperature;BME280_humidity;BME280_pressure;Samples;Min_cycle;Max_cycle;Signal;HPM_P1;HPM_P2
2022/12/05 00:01:37;;;;;;;29.67;15.75;;;3.40;99.90;;;;;;5052745;28;20218;-53
2022/12/05 00:04:11;;;;;;;30.08;15.73;;;3.40;99.90;;;;;;5052705;28;20225;-53
2022/12/05 00:06:45;;;;;;;30.45;15.00;;;3.40;99.90;;;;;;5052622;28;20682;-54
2022/12/05 00:09:12;;;;;;;32.72;16.45;;;3.40;99.90;;;;;;5052755;28;20166;-54
2022/12/05 00:11:42;;;;;;;33.53;15.88;;;3.50;99.90;;;;;;5052754;28;20638;-54
2022/12/05 00:14:11;;;;;;;29.42;16.15;;;3.40;99.90;;;;;;5052686;28;20177;-53
2022/12/05 00:16:39;;;;;;;30.45;15.07;;;3.50;99.90;;;;;;5052702;28;20189;-54
2022/12/05 00:19:06;;;;;;;27.80;15.45;;;3.60;99.90;;;;;;5052550;28;20193;-54
2022/12/05 00:21:34;;;;;;;35.45;15.68;;;3.60;99.90;;;;;;5052339;28;20221;-54
2022/12/05 00:24:01;;;;;;;29.55;15.32;;;3.60;99.90;;;;;;5052867;28;20203;-54
2022/12/05 00:26:30;;;;;;;27.50;13.35;;;3.60;99.90;;;;;;5052728;28;20229;-54
2022/12/05 00:29:00;;;;;;;29.75;15.93;;;3.60;99.90;;;;;;5052273;28;20658;-54
2022/12/05 00:31:27;;;;;;;31.33;15.40;;;3.70;99.90;;;;;;5052084;28;20185;-54
2022/12/05 00:33:54;;;;;;;28.73;15.15;;;3.60;99.90;;;;;;5034479;28;20171;-52
2022/12/05 00:36:23;;;;;;;28.15;15.00;;;3.70;99.90;;;;;;5051762;28;20623;-52
2022/12/05 00:38:59;;;;;;;26.88;15.60;;;3.70;99.90;;;;;;5052312;28;20236;-54
2022/12/05 00:41:26;;;;;;;26.17;14.80;;;3.70;99.90;;;;;;5051729;28;20245;-50
2022/12/05 00:43:53;;;;;;;28.83;15.23;;;3.70;99.90;;;;;;5051321;28;20207;-48
2022/12/05 00:46:21;;;;;;;26.00;15.23;;;3.80;99.90;;;;;;5051496;28;20159;-48
2022/12/05 00:48:47;;;;;;;25.83;14.13;;;3.80;99.90;;;;;;5052257;28;20167;-49
2022/12/05 00:51:17;;;;;;;26.20;13.75;;;3.70;99.90;;;;;;5052235;28;20170;-48
2022/12/05 00:53:44;;;;;;;28.23;15.43;;;3.70;99.90;;;;;;5052203;28;20201;-48
2022/12/05 00:56:17;;;;;;;28.15;14.25;;;3.70;99.90;;;;;;5052083;28;20223;-47
2022/12/05 00:58:43;;;;;;;27.52;15.57;;;3.70;99.90;;;;;;5052129;28;20215;-47
2022/12/05 01:01:15;;;;;;;27.02;14.85;;;3.70;99.90;;;;;;5051398;28;20230;-49
2022/12/05 01:03:42;;;;;;;34.85;14.00;;;3.70;99.90;;;;;;5051980;28;20685;-48
2022/12/05 01:06:09;;;;;;;27.48;15.80;;;3.70;99.90;;;;;;5052045;28;20175;-48
2022/12/05 01:08:35;;;;;;;27.13;13.57;;;3.70;99.90;;;;;;5051892;28;20155;-50
2022/12/05 01:11:01;;;;;;;32.20;14.32;;;3.60;99.90;;;;;;5052113;28;20245;-47
2022/12/05 01:13:28;;;;;;;26.27;13.57;;;3.70;99.90;;;;;;5034359;28;20173;-50
2022/12/05 01:15:53;;;;;;;29.55;14.02;;;3.60;99.90;;;;;;5051851;28;20253;-48
2022/12/05 01:18:20;;;;;;;32.65;14.95;;;3.60;99.90;;;;;;5051801;28;20249;-47
2022/12/05 01:20:46;;;;;;;26.98;14.35;;;3.50;99.90;;;;;;5051831;28;20213;-48
2022/12/05 01:23:12;;;;;;;24.02;12.07;;;3.50;99.90;;;;;;5051666;28;20182;-48
2022/12/05 01:25:40;;;;;;;32.30;15.18;;;3.60;99.90;;;;;;5051702;28;20181;-48
2022/12/05 01:28:06;;;;;;;29.45;14.25;;;3.60;99.90;;;;;;5033861;28;20162;-50
2022/12/05 01:30:31;;;;;;;34.30;15.45;;;3.50;99.90;;;;;;5051591;28;20179;-47
2022/12/05 01:32:58;;;;;;;27.08;14.80;;;3.70;99.90;;;;;;5051726;28;20163;-48
2022/12/05 01:35:24;;;;;;;32.50;15.38;;;3.70;99.90;;;;;;5051593;28;20170;-50
2022/12/05 01:37:50;;;;;;;32.90;15.95;;;3.70;99.90;;;;;;5051460;28;20174;-48
2022/12/05 01:40:16;;;;;;;24.75;13.73;;;3.60;99.90;;;;;;5051553;28;20170;-51
2022/12/05 01:42:41;;;;;;;29.88;14.82;;;3.50;99.90;;;;;;5051524;28;20573;-48
2022/12/05 01:45:16;;;;;;;27.25;14.20;;;3.50;99.90;;;;;;5051445;28;20678;-48
2022/12/05 01:47:43;;;;;;;33.53;14.88;;;3.60;99.90;;;;;;5052043;28;20181;-49
2022/12/05 01:50:09;;;;;;;29.35;14.63;;;3.60;99.90;;;;;;5055667;28;20304;-49
2022/12/05 01:52:35;;;;;;;28.52;15.75;;;3.60;99.90;;;;;;5037723;28;20595;-50
2022/12/05 01:55:07;;;;;;;28.15;13.50;;;3.50;99.90;;;;;;5055589;28;20249;-47
2022/12/05 01:57:33;;;;;;;27.80;14.32;;;3.60;99.90;;;;;;5055876;28;20170;-48
2022/12/05 02:00:07;;;;;;;29.20;14.90;;;3.60;99.90;;;;;;5055829;28;20162;-48
2022/12/05 02:02:32;;;;;;;29.92;16.00;;;3.70;99.90;;;;;;5055466;28;20279;-48
2022/12/05 02:05:04;;;;;;;27.70;15.43;;;3.70;99.90;;;;;;5055886;28;20678;-48
2022/12/05 02:07:30;;;;;;;26.08;14.50;;;3.70;99.90;;;;;;5055714;28;20250;-51
2022/12/05 02:09:56;;;;;;;32.17;15.85;;;3.70;99.90;;;;;;5055671;28;20174;-47
2022/12/05 02:12:23;;;;;;;34.53;16.42;;;3.60;99.90;;;;;;5055239;28;20167;-48
2022/12/05 02:15:08;;;;;;;27.13;15.35;;;3.70;99.90;;;;;;5055438;28;20198;-49
2022/12/05 02:18:02;;;;;;;31.60;15.75;;;3.70;99.90;;;;;;5055098;28;20638;-50
2022/12/05 02:20:33;;;;;;;32.67;14.63;;;3.80;99.90;;;;;;5055389;28;20179;-49
2022/12/05 02:23:16;;;;;;;32.40;15.27;;;3.70;99.90;;;;;;5055345;28;20198;-48
2022/12/05 02:26:00;;;;;;;28.05;14.23;;;3.80;99.90;;;;;;5055019;28;20634;-47
2022/12/05 02:28:50;;;;;;;31.45;15.60;;;3.80;99.90;;;;;;5055338;28;20162;-49
2022/12/05 02:31:25;;;;;;;33.30;14.50;;;3.80;99.90;;;;;;5055146;28;20179;-49
2022/12/05 02:34:17;;;;;;;29.15;14.20;;;3.70;99.90;;;;;;5054875;28;20162;-48
2022/12/05 02:37:03;;;;;;;27.85;14.38;;;3.80;99.90;;;;;;5054853;28;20171;-47
2022/12/05 02:39:40;;;;;;;24.95;13.65;;;3.70;99.90;;;;;;5055223;28;20163;-47
2022/12/05 02:42:14;;;;;;;30.48;14.73;;;3.80;99.90;;;;;;5054884;28;20258;-47
2022/12/05 02:45:13;;;;;;;31.73;15.65;;;3.80;99.90;;;;;;5054632;28;20612;-47
2022/12/05 02:47:46;;;;;;;28.00;14.75;;;3.80;99.90;;;;;;5001207;28;20178;-50
2022/12/05 02:50:15;;;;;;;24.90;13.82;;;3.80;99.90;;;;;;5054558;28;20552;-51
2022/12/05 02:52:44;;;;;;;27.73;14.63;;;3.70;99.90;;;;;;5054533;28;20254;-52
2022/12/05 02:55:11;;;;;;;24.60;14.13;;;3.80;99.90;;;;;;5054452;28;20289;-54
2022/12/05 02:57:39;;;;;;;28.55;14.45;;;3.80;99.90;;;;;;5054480;28;20163;-54
2022/12/05 03:00:05;;;;;;;27.67;14.25;;;3.70;99.90;;;;;;5054525;28;20170;-54
2022/12/05 03:02:33;;;;;;;30.20;15.10;;;3.80;99.90;;;;;;5054821;28;20257;-47
2022/12/05 03:05:27;;;;;;;25.50;14.23;;;3.80;99.90;;;;;;5054880;28;20295;-48
2022/12/05 03:07:56;;;;;;;29.85;14.95;;;3.80;99.90;;;;;;5054211;28;20171;-49
2022/12/05 03:10:25;;;;;;;27.77;14.25;;;3.80;99.90;;;;;;5054459;28;20167;-49
2022/12/05 03:12:56;;;;;;;29.95;15.32;;;3.80;99.90;;;;;;5054229;28;20166;-50
2022/12/05 03:15:36;;;;;;;32.50;14.82;;;3.80;99.90;;;;;;5054139;28;20184;-53
2022/12/05 03:18:10;;;;;;;28.35;14.48;;;3.80;99.90;;;;;;5054011;28;20641;-51
2022/12/05 03:20:46;;;;;;;29.05;14.52;;;3.80;99.90;;;;;;5054056;28;20559;-48
2022/12/05 03:23:27;;;;;;;27.33;14.75;;;3.80;99.90;;;;;;5053810;28;20167;-48
2022/12/05 03:25:59;;;;;;;25.80;14.68;;;3.80;99.90;;;;;;5053953;28;20185;-48
2022/12/05 03:28:37;;;;;;;23.38;13.52;;;3.70;99.90;;;;;;5053884;28;20162;-49
2022/12/05 03:31:07;;;;;;;30.50;14.65;;;3.70;99.90;;;;;;5053747;28;20212;-48
2022/12/05 03:33:40;;;;;;;32.88;14.43;;;3.60;99.90;;;;;;5053765;28;20190;-49
2022/12/05 03:36:14;;;;;;;27.70;14.18;;;3.70;99.90;;;;;;5053933;28;20193;-48
2022/12/05 03:39:05;;;;;;;28.38;14.40;;;3.60;99.90;;;;;;5053865;28;20170;-49
2022/12/05 03:41:47;;;;;;;27.80;14.75;;;3.60;99.90;;;;;;5053627;28;20171;-50
2022/12/05 03:44:50;;;;;;;30.02;14.20;;;3.50;99.90;;;;;;5053495;28;20198;-50
2022/12/05 03:47:49;;;;;;;31.05;14.80;;;3.60;99.90;;;;;;5053470;28;20223;-51
2022/12/05 03:50:26;;;;;;;25.98;13.75;;;3.50;99.90;;;;;;5035539;28;20630;-48
2022/12/05 03:53:16;;;;;;;25.83;13.38;;;3.40;99.90;;;;;;5053647;28;20202;-50
2022/12/05 03:55:44;;;;;;;26.15;14.25;;;3.40;99.90;;;;;;5053620;28;20174;-50
2022/12/05 03:58:20;;;;;;;26.77;14.55;;;3.40;99.90;;;;;;5053274;28;20560;-47
2022/12/05 04:00:49;;;;;;;28.67;13.88;;;3.40;99.90;;;;;;5053119;28;20253;-47
2022/12/05 04:03:46;;;;;;;28.02;13.90;;;3.30;99.90;;;;;;5053059;28;20167;-47
2022/12/05 04:06:24;;;;;;;26.02;13.82;;;3.30;99.90;;;;;;5053338;28;20253;-47
2022/12/05 04:08:55;;;;;;;28.42;13.88;;;3.30;99.90;;;;;;5053074;28;20171;-47
2022/12/05 04:11:24;;;;;;;29.58;15.27;;;3.50;99.90;;;;;;5052431;28;20159;-47
2022/12/05 04:14:11;;;;;;;31.63;14.38;;;3.50;99.90;;;;;;5052939;28;20680;-47
2022/12/05 04:17:04;;;;;;;26.75;13.25;;;3.50;99.90;;;;;;5053008;28;20174;-49
2022/12/05 04:22:29;;;;;;;26.45;14.98;;;3.40;99.90;;;;;;5053515;28;20269;-47
2022/12/05 04:28:33;;;;;;;26.08;13.68;;;3.40;99.90;;;;;;4952483;28;20213;-47
2022/12/05 04:31:06;;;;;;;26.23;13.90;;;3.40;99.90;;;;;;4904010;29;20528;-47
2022/12/05 04:33:38;;;;;;;25.33;14.50;;;3.40;99.90;;;;;;5026353;28;20232;-49
2022/12/05 04:36:12;;;;;;;28.27;13.82;;;3.30;99.90;;;;;;5052550;28;20543;-47
2022/12/05 04:38:50;;;;;;;25.05;13.90;;;3.30;99.90;;;;;;5052426;28;20190;-48
2022/12/05 04:41:21;;;;;;;26.33;13.95;;;3.30;99.90;;;;;;5052382;28;20170;-48
2022/12/05 04:43:50;;;;;;;30.42;15.18;;;3.30;99.90;;;;;;5052310;28;20194;-49
2022/12/05 04:46:18;;;;;;;25.27;13.38;;;3.30;99.90;;;;;;5052330;28;20179;-48
2022/12/05 04:48:49;;;;;;;24.42;13.88;;;3.40;99.90;;;;;;5052294;28;20174;-48
2022/12/05 04:51:19;;;;;;;25.73;13.30;;;3.40;99.90;;;;;;5052499;28;20175;-48
2022/12/05 04:53:48;;;;;;;23.00;13.02;;;3.30;99.90;;;;;;5052221;28;20170;-47
2022/12/05 04:56:17;;;;;;;27.70;14.38;;;3.30;99.90;;;;;;5052065;28;20163;-48
2022/12/05 04:58:43;;;;;;;26.75;14.77;;;3.30;99.90;;;;;;5052353;28;20177;-47
2022/12/05 05:01:26;;;;;;;27.65;14.00;;;3.40;99.90;;;;;;5051963;28;20733;-48
2022/12/05 05:04:05;;;;;;;29.23;14.85;;;3.40;99.90;;;;;;5051934;28;20244;-47
2022/12/05 05:06:31;;;;;;;23.75;13.43;;;3.40;99.90;;;;;;5051905;28;20166;-47
2022/12/05 05:08:57;;;;;;;24.95;13.73;;;3.30;99.90;;;;;;5052249;28;20530;-48
2022/12/05 05:11:24;;;;;;;27.13;14.90;;;3.30;99.90;;;;;;5051910;28;20175;-47
2022/12/05 05:13:51;;;;;;;24.17;13.93;;;3.30;99.90;;;;;;5051827;28;20565;-48
2022/12/05 05:16:22;;;;;;;28.75;15.25;;;3.20;99.90;;;;;;5051885;28;20729;-49
2022/12/05 05:18:49;;;;;;;23.25;13.00;;;3.30;99.90;;;;;;5051821;28;20178;-47
2022/12/05 05:21:19;;;;;;;30.42;14.10;;;3.30;99.90;;;;;;5051666;28;20530;-48
2022/12/05 05:23:45;;;;;;;27.70;14.02;;;3.20;99.90;;;;;;5050665;28;20197;-47
2022/12/05 05:26:11;;;;;;;27.48;12.85;;;3.20;99.90;;;;;;5051653;28;20166;-47
2022/12/05 05:28:37;;;;;;;26.95;13.50;;;3.20;99.90;;;;;;5051984;28;20173;-49
2022/12/05 05:31:04;;;;;;;23.95;14.27;;;3.20;99.90;;;;;;5051552;28;20170;-48
2022/12/05 05:33:30;;;;;;;29.55;13.68;;;3.20;99.90;;;;;;5034373;28;20216;-47
2022/12/05 05:35:55;;;;;;;27.45;14.25;;;3.30;99.90;;;;;;5051999;28;20571;-47
2022/12/05 05:38:21;;;;;;;23.38;12.98;;;3.30;99.90;;;;;;5051593;28;20167;-47
2022/12/05 05:40:46;;;;;;;22.58;12.95;;;3.20;99.90;;;;;;5051507;28;20162;-47
2022/12/05 05:43:12;;;;;;;24.77;13.35;;;3.30;99.90;;;;;;5051389;28;20171;-48
2022/12/05 05:45:37;;;;;;;28.00;13.82;;;3.20;99.90;;;;;;5051433;28;20181;-48
2022/12/05 05:48:03;;;;;;;27.17;13.68;;;3.20;99.90;;;;;;5051525;28;20242;-48
2022/12/05 05:50:28;;;;;;;23.58;13.18;;;3.20;99.90;;;;;;5051767;28;20649;-48
2022/12/05 05:52:54;;;;;;;26.10;14.13;;;3.20;99.90;;;;;;5051486;28;20194;-47
2022/12/05 05:55:20;;;;;;;24.10;14.20;;;3.20;99.90;;;;;;5051375;28;20166;-50
2022/12/05 05:57:46;;;;;;;25.25;13.40;;;3.20;99.90;;;;;;5051341;28;20189;-47
2022/12/05 06:00:12;;;;;;;25.17;13.13;;;3.10;99.90;;;;;;5051664;28;20214;-48
2022/12/05 06:02:37;;;;;;;23.58;13.52;;;3.10;99.90;;;;;;5051065;28;20229;-48
2022/12/05 06:05:04;;;;;;;23.48;14.48;;;3.10;99.90;;;;;;5051441;28;20214;-47
2022/12/05 06:07:29;;;;;;;25.20;15.00;;;3.10;99.90;;;;;;5051252;28;20175;-47
2022/12/05 06:09:55;;;;;;;28.33;14.13;;;3.10;99.90;;;;;;5051725;28;20182;-47
2022/12/05 06:12:21;;;;;;;24.10;13.43;;;3.10;99.90;;;;;;5051067;28;20155;-46
2022/12/05 06:14:47;;;;;;;24.95;12.88;;;3.10;99.90;;;;;;5051271;28;20167;-48
2022/12/05 06:17:13;;;;;;;26.65;13.98;;;3.00;99.90;;;;;;5051021;28;20237;-48
2022/12/05 06:19:39;;;;;;;22.38;13.45;;;3.10;99.90;;;;;;5032476;28;20527;-47
2022/12/05 06:22:05;;;;;;;26.23;14.57;;;3.10;99.90;;;;;;5050562;28;20159;-47
2022/12/05 06:24:30;;;;;;;28.08;13.52;;;3.10;99.90;;;;;;5050363;28;20214;-48
2022/12/05 06:26:56;;;;;;;25.80;13.25;;;3.10;99.90;;;;;;5033099;28;20170;-49
2022/12/05 06:29:21;;;;;;;26.25;13.50;;;3.10;99.90;;;;;;5050388;28;20713;-49
2022/12/05 06:31:47;;;;;;;21.98;12.55;;;3.10;99.90;;;;;;5050331;28;20166;-53
2022/12/05 06:34:13;;;;;;;21.83;12.60;;;3.10;99.90;;;;;;5051398;28;20166;-50
2022/12/05 06:36:38;;;;;;;23.52;13.13;;;3.20;99.90;;;;;;5036804;28;20220;-50
2022/12/05 06:39:04;;;;;;;26.48;14.30;;;5.30;99.90;;;;;;5054614;28;20177;-47
2022/12/05 06:41:30;;;;;;;27.15;14.18;;;3.10;99.90;;;;;;5054582;28;20229;-47
2022/12/05 06:43:57;;;;;;;25.67;13.90;;;3.10;99.90;;;;;;5054816;28;20675;-48
2022/12/05 06:46:24;;;;;;;23.70;12.70;;;3.10;99.90;;;;;;5054451;28;20252;-49
2022/12/05 06:48:55;;;;;;;24.98;12.60;;;3.10;99.90;;;;;;5054501;28;20645;-47
2022/12/05 06:51:21;;;;;;;27.02;13.10;;;3.10;99.90;;;;;;5054552;28;20249;-47
2022/12/05 06:53:47;;;;;;;24.25;13.45;;;3.10;99.90;;;;;;5054349;28;20171;-47
2022/12/05 06:56:15;;;;;;;24.65;12.85;;;3.00;99.90;;;;;;5054379;28;20485;-47
2022/12/05 06:58:47;;;;;;;20.27;11.82;;;3.10;99.90;;;;;;5054365;28;20212;-47
2022/12/05 07:03:59;;;;;;;27.10;13.88;;;3.00;99.90;;;;;;5054368;28;20343;-47
2022/12/05 07:06:26;;;;;;;21.27;12.77;;;3.10;99.90;;;;;;5054484;28;20170;-47
2022/12/05 07:08:52;;;;;;;24.55;12.82;;;3.10;99.90;;;;;;5054211;28;20174;-47
2022/12/05 07:11:17;;;;;;;24.05;12.27;;;3.10;99.90;;;;;;5054449;28;20571;-48
2022/12/05 07:13:43;;;;;;;33.42;16.35;;;3.10;99.90;;;;;;5054105;28;20201;-47
2022/12/05 07:16:09;;;;;;;31.25;17.45;;;3.10;99.90;;;;;;5054074;28;20183;-47
2022/12/05 07:18:35;;;;;;;25.35;13.63;;;3.00;99.90;;;;;;5053912;28;20173;-51
2022/12/05 07:21:03;;;;;;;23.80;13.23;;;3.10;99.90;;;;;;5054187;28;20224;-48
2022/12/05 07:23:29;;;;;;;24.73;14.30;;;3.00;99.90;;;;;;5053892;28;20674;-47
2022/12/05 07:25:56;;;;;;;28.58;14.38;;;3.10;99.90;;;;;;5036433;28;20266;-48
2022/12/05 07:28:22;;;;;;;30.15;16.98;;;3.00;99.90;;;;;;5054091;28;20194;-47
2022/12/05 07:30:48;;;;;;;25.05;14.50;;;3.10;99.90;;;;;;5053762;28;20167;-49
2022/12/05 07:33:14;;;;;;;27.35;14.25;;;3.10;99.90;;;;;;5053680;28;20213;-47
2022/12/05 07:35:39;;;;;;;24.45;13.32;;;3.00;99.90;;;;;;5053652;28;20535;-47
2022/12/05 07:38:05;;;;;;;24.23;13.50;;;3.00;99.90;;;;;;5053579;28;20171;-47
2022/12/05 07:40:31;;;;;;;26.02;14.18;;;3.00;99.90;;;;;;5053853;28;20249;-47
2022/12/05 07:42:56;;;;;;;25.27;14.27;;;3.00;99.90;;;;;;5053884;28;20158;-46
2022/12/05 07:45:22;;;;;;;24.60;13.90;;;2.90;99.90;;;;;;5050614;28;20233;-47
2022/12/05 07:47:48;;;;;;;24.40;14.88;;;3.00;99.90;;;;;;5058748;28;20162;-46
2022/12/05 07:50:14;;;;;;;28.83;14.68;;;3.00;99.90;;;;;;5071702;28;20180;-46
2022/12/05 07:52:40;;;;;;;27.27;15.20;;;3.10;99.90;;;;;;5071599;28;20174;-43
2022/12/05 07:55:06;;;;;;;28.95;15.35;;;3.10;99.90;;;;;;5071506;28;20638;-45
2022/12/05 07:57:32;;;;;;;35.58;20.85;;;3.00;99.90;;;;;;5071616;28;20726;-47
2022/12/05 07:59:57;;;;;;;30.80;16.83;;;3.10;99.90;;;;;;5056562;28;20175;-48
2022/12/05 08:02:23;;;;;;;31.77;17.60;;;3.10;99.90;;;;;;5051293;28;20218;-49
2022/12/05 08:04:49;;;;;;;24.83;14.68;;;3.10;99.90;;;;;;5051351;28;20221;-48
2022/12/05 08:07:14;;;;;;;22.58;13.77;;;3.10;99.90;;;;;;5051299;28;20170;-48
2022/12/05 08:09:40;;;;;;;29.92;16.40;;;3.00;99.90;;;;;;5051234;28;20232;-47
2022/12/05 08:12:06;;;;;;;21.08;13.90;;;3.00;99.90;;;;;;5051085;28;20163;-47
2022/12/05 08:14:32;;;;;;;26.20;14.93;;;3.10;99.90;;;;;;5051274;28;20205;-45
2022/12/05 08:16:57;;;;;;;25.38;14.07;;;3.10;99.90;;;;;;5051539;28;20198;-48
2022/12/05 08:19:23;;;;;;;25.92;14.98;;;3.10;99.90;;;;;;5051226;28;20236;-46
2022/12/05 08:21:51;;;;;;;45.35;22.63;;;3.10;99.90;;;;;;5050931;28;20707;-49
2022/12/05 08:24:16;;;;;;;48.25;22.15;;;3.10;99.90;;;;;;5051234;28;20658;-47
2022/12/05 08:26:42;;;;;;;40.03;20.05;;;3.20;99.90;;;;;;5050932;28;20171;-46
2022/12/05 08:29:10;;;;;;;29.58;17.90;;;3.20;99.90;;;;;;5051041;28;20162;-46
2022/12/05 08:31:48;;;;;;;26.52;16.20;;;3.20;99.90;;;;;;5050944;28;20198;-49
2022/12/05 08:34:15;;;;;;;25.80;15.23;;;3.30;99.90;;;;;;5050741;28;20256;-47
2022/12/05 08:36:41;;;;;;;26.38;15.10;;;3.40;99.90;;;;;;5050800;28;20217;-45
2022/12/05 08:39:10;;;;;;;29.77;15.75;;;3.30;99.90;;;;;;5051042;28;20635;-48
2022/12/05 08:41:36;;;;;;;27.45;16.15;;;3.40;99.90;;;;;;5050971;28;20166;-46
2022/12/05 08:44:04;;;;;;;28.13;16.40;;;3.40;99.90;;;;;;5050481;28;20273;-50
2022/12/05 08:46:32;;;;;;;23.90;14.82;;;3.40;99.90;;;;;;5050708;28;20170;-48
2022/12/05 08:48:58;;;;;;;26.30;16.33;;;3.40;99.90;;;;;;5033008;28;20505;-50
2022/12/05 08:51:24;;;;;;;28.77;16.20;;;3.40;99.90;;;;;;5033022;28;20535;-47
2022/12/05 08:53:50;;;;;;;28.67;15.57;;;3.40;99.90;;;;;;5032747;28;20664;-48
2022/12/05 08:56:15;;;;;;;27.73;17.25;;;3.40;99.90;;;;;;5050332;28;20167;-46
2022/12/05 08:58:41;;;;;;;28.58;17.25;;;3.40;99.90;;;;;;5050163;28;20171;-48
2022/12/05 09:01:15;;;;;;;23.98;15.10;;;3.40;99.90;;;;;;5032403;28;20218;-48
2022/12/05 09:03:41;;;;;;;25.60;15.05;;;3.40;99.90;;;;;;5050306;28;20252;-47
2022/12/05 09:06:10;;;;;;;27.75;16.45;;;3.40;99.90;;;;;;5050278;28;20641;-48
2022/12/05 09:08:36;;;;;;;29.05;15.23;;;3.40;99.90;;;;;;5050196;28;20175;-47
2022/12/05 09:11:13;;;;;;;23.75;14.23;;;3.40;99.90;;;;;;5050136;28;20638;-50
2022/12/05 09:13:39;;;;;;;23.35;13.23;;;3.40;99.90;;;;;;5050067;28;20178;-50
2022/12/05 09:16:09;;;;;;;24.40;12.98;;;3.40;99.90;;;;;;5050121;28;20166;-54
2022/12/05 09:18:36;;;;;;;25.27;13.73;;;3.40;99.90;;;;;;5050166;28;20538;-50
2022/12/05 09:21:13;;;;;;;21.85;12.65;;;3.50;99.90;;;;;;5050043;28;20622;-47
2022/12/05 09:23:39;;;;;;;22.83;13.57;;;3.60;99.90;;;;;;5049828;28;20669;-47
2022/12/05 09:26:07;;;;;;;24.10;13.13;;;3.50;99.90;;;;;;5032035;28;20212;-49
2022/12/05 09:28:34;;;;;;;25.17;14.95;;;3.50;99.90;;;;;;5049958;28;20246;-53
2022/12/05 09:31:02;;;;;;;25.13;14.30;;;3.50;99.90;;;;;;5050265;28;20171;-46
2022/12/05 09:33:29;;;;;;;25.20;14.45;;;3.50;99.90;;;;;;5050660;28;20190;-46
2022/12/05 09:35:54;;;;;;;25.27;13.93;;;3.60;99.90;;;;;;5049840;28;20174;-48
2022/12/05 09:38:20;;;;;;;25.85;15.32;;;3.60;99.90;;;;;;5051582;28;20514;-45
2022/12/05 09:40:55;;;;;;;29.40;16.80;;;3.50;99.90;;;;;;5069747;28;20220;-49
2022/12/05 09:43:34;;;;;;;28.10;15.27;;;3.50;99.90;;;;;;5069746;28;20162;-46
2022/12/05 09:46:18;;;;;;;26.50;15.52;;;3.60;99.90;;;;;;5069780;28;20174;-46
2022/12/05 09:48:44;;;;;;;24.90;14.50;;;3.50;99.90;;;;;;5051961;28;20200;-50
2022/12/05 09:51:11;;;;;;;24.20;13.65;;;3.50;99.90;;;;;;5070250;28;20598;-49
2022/12/05 09:53:39;;;;;;;20.77;13.45;;;3.50;99.90;;;;;;5069709;28;20271;-52
2022/12/05 09:56:12;;;;;;;20.35;12.40;;;3.50;99.90;;;;;;5070054;28;20568;-49
2022/12/05 09:58:40;;;;;;;24.73;14.02;;;3.40;99.90;;;;;;5069650;28;20166;-48
2022/12/05 10:01:08;;;;;;;25.52;14.05;;;3.40;99.90;;;;;;5069491;28;20214;-48
2022/12/05 10:03:57;;;;;;;23.80;14.07;;;3.40;99.90;;;;;;5069454;28;20201;-48
2022/12/05 10:06:33;;;;;;;22.95;13.40;;;3.40;99.90;;;;;;5020441;28;20702;-47
2022/12/05 10:09:29;;;;;;;22.33;13.80;;;3.50;99.90;;;;;;5070293;28;20668;-49
2022/12/05 10:12:01;;;;;;;23.88;12.93;;;3.40;99.90;;;;;;5073862;28;20264;-47
2022/12/05 10:15:16;;;;;;;24.95;14.73;;;3.40;99.90;;;;;;5073814;28;20173;-49
2022/12/05 10:18:07;;;;;;;25.77;16.83;;;3.20;99.90;;;;;;5054501;28;20178;-47
2022/12/05 10:20:48;;;;;;;26.65;14.68;;;3.30;99.90;;;;;;5073193;28;20253;-47
2022/12/05 10:23:22;;;;;;;22.65;13.40;;;3.30;99.90;;;;;;5072768;28;20264;-46
2022/12/05 10:25:54;;;;;;;22.02;12.73;;;3.40;99.90;;;;;;5073275;28;20231;-46
2022/12/05 10:28:38;;;;;;;23.75;13.23;;;3.40;99.90;;;;;;5073229;28;20162;-47
2022/12/05 10:31:10;;;;;;;24.73;15.23;;;4.00;99.90;;;;;;5055141;28;20178;-47
2022/12/05 10:33:51;;;;;;;25.67;13.60;;;3.20;99.90;;;;;;5055391;28;20200;-46
2022/12/05 10:36:17;;;;;;;24.77;14.77;;;3.20;99.90;;;;;;5072837;28;20633;-46
2022/12/05 10:38:45;;;;;;;24.08;14.02;;;3.20;99.90;;;;;;5073118;28;20265;-47
2022/12/05 10:41:13;;;;;;;26.33;15.73;;;3.20;99.90;;;;;;5073086;28;20174;-47
2022/12/05 10:43:42;;;;;;;37.83;20.35;;;3.20;99.90;;;;;;5072749;28;20323;-48
2022/12/05 10:46:09;;;;;;;36.60;19.45;;;3.20;99.90;;;;;;5072922;28;20227;-47
2022/12/05 10:48:37;;;;;;;29.70;17.25;;;3.20;99.90;;;;;;5072892;28;20166;-47
2022/12/05 10:51:04;;;;;;;22.50;13.85;;;3.20;99.90;;;;;;5072955;28;20253;-46
2022/12/05 10:53:48;;;;;;;23.10;13.15;;;3.10;99.90;;;;;;5072925;28;20313;-49
2022/12/05 10:56:42;;;;;;;21.55;13.43;;;3.20;99.90;;;;;;5072705;28;20264;-46
2022/12/05 10:59:11;;;;;;;36.42;21.38;;;3.10;99.90;;;;;;5054740;28;20539;-47
2022/12/05 11:01:42;;;;;;;37.20;20.85;;;3.10;99.90;;;;;;5072754;28;20210;-46
2022/12/05 11:04:29;;;;;;;22.48;13.27;;;3.10;99.90;;;;;;5073125;28;20546;-46
2022/12/05 11:07:01;;;;;;;21.52;13.13;;;3.20;99.90;;;;;;5072631;28;20174;-47
2022/12/05 11:09:30;;;;;;;20.73;12.43;;;3.20;99.90;;;;;;5073066;28;20181;-47
2022/12/05 11:12:17;;;;;;;20.17;11.48;;;3.20;99.90;;;;;;5072933;28;20162;-47
2022/12/05 11:14:55;;;;;;;24.13;13.55;;;3.30;99.90;;;;;;5054601;28;20167;-46
2022/12/05 11:17:29;;;;;;;23.13;13.02;;;3.40;99.90;;;;;;5072446;28;20181;-47
2022/12/05 11:19:55;;;;;;;21.33;12.85;;;3.40;99.90;;;;;;5072791;28;20177;-47
2022/12/05 11:22:30;;;;;;;21.88;13.43;;;3.30;99.90;;;;;;5072090;28;20692;-46
2022/12/05 11:24:55;;;;;;;22.90;13.38;;;3.30;99.90;;;;;;5072535;28;20205;-47
2022/12/05 11:27:28;;;;;;;19.65;12.00;;;3.30;99.90;;;;;;5072319;28;20216;-47
2022/12/05 11:29:56;;;;;;;20.65;12.60;;;3.30;99.90;;;;;;5072899;28;20246;-47
2022/12/05 11:32:25;;;;;;;22.98;14.00;;;3.30;99.90;;;;;;5072026;28;20249;-47
2022/12/05 11:35:12;;;;;;;20.50;13.30;;;3.30;99.90;;;;;;5072356;28;20193;-47
2022/12/05 11:37:57;;;;;;;17.15;10.98;;;3.30;99.90;;;;;;5072080;28;20198;-47
2022/12/05 11:40:38;;;;;;;15.15;10.75;;;3.20;99.90;;;;;;5072144;28;20166;-46
2022/12/05 11:43:15;;;;;;;20.00;12.10;;;3.20;99.90;;;;;;5071637;28;20272;-49
2022/12/05 11:45:58;;;;;;;19.98;12.00;;;3.40;99.90;;;;;;5053915;28;20201;-47
2022/12/05 11:48:39;;;;;;;22.45;12.50;;;3.40;99.90;;;;;;5055498;28;20158;-46
2022/12/05 11:51:34;;;;;;;17.15;11.07;;;3.30;99.90;;;;;;5071792;28;20681;-47
2022/12/05 11:54:22;;;;;;;16.98;11.18;;;3.30;99.90;;;;;;5071653;28;20170;-46
2022/12/05 11:56:55;;;;;;;29.25;18.88;;;3.30;99.90;;;;;;5070649;28;20210;-49
2022/12/05 11:59:40;;;;;;;23.67;16.10;;;3.30;99.90;;;;;;5071582;28;20534;-47
2022/12/05 12:02:15;;;;;;;22.67;14.80;;;3.40;99.90;;;;;;5071403;28;20214;-47
2022/12/05 12:04:46;;;;;;;21.70;14.63;;;3.40;99.90;;;;;;5071197;28;20205;-47
2022/12/05 12:07:26;;;;;;;23.08;14.43;;;3.40;99.90;;;;;;5071462;28;20946;-48
2022/12/05 12:09:52;;;;;;;21.02;12.38;;;3.40;99.90;;;;;;5071392;28;20170;-47
2022/12/05 12:12:38;;;;;;;20.38;13.75;;;3.40;99.90;;;;;;5071388;28;20181;-47
2022/12/05 12:15:25;;;;;;;20.77;12.07;;;3.40;99.90;;;;;;5071609;28;20166;-47
2022/12/05 12:18:07;;;;;;;23.85;13.38;;;3.30;99.90;;;;;;5071525;28;20249;-51
2022/12/05 12:20:43;;;;;;;18.95;12.82;;;3.40;99.90;;;;;;5071348;28;20215;-49
2022/12/05 12:23:35;;;;;;;20.95;13.13;;;3.30;99.90;;;;;;5053365;28;20256;-47
2022/12/05 12:26:06;;;;;;;21.08;12.38;;;3.40;99.90;;;;;;5071287;28;20225;-47
2022/12/05 12:28:50;;;;;;;25.98;13.90;;;3.40;99.90;;;;;;5071419;28;20650;-47
2022/12/05 12:31:28;;;;;;;21.90;13.10;;;3.40;99.90;;;;;;5070807;28;20172;-47
2022/12/05 12:34:28;;;;;;;23.25;13.13;;;3.40;99.90;;;;;;5071500;28;20177;-48
2022/12/05 12:37:31;;;;;;;25.23;13.85;;;3.40;99.90;;;;;;5071020;28;20173;-48
2022/12/05 12:40:27;;;;;;;24.65;13.98;;;3.40;99.90;;;;;;4982078;28;20560;-47
2022/12/05 12:43:11;;;;;;;20.05;12.80;;;3.40;99.90;;;;;;5071096;28;20166;-48
2022/12/05 12:46:09;;;;;;;22.83;14.15;;;3.40;99.90;;;;;;5070835;28;20212;-48
2022/12/05 12:49:08;;;;;;;23.83;13.65;;;3.40;99.90;;;;;;5019784;28;20205;-48
2022/12/05 12:51:34;;;;;;;20.02;11.75;;;3.40;99.90;;;;;;5070646;28;20252;-48
2022/12/05 12:54:26;;;;;;;23.20;12.90;;;3.30;99.90;;;;;;5052845;28;20174;-47
2022/12/05 12:57:23;;;;;;;20.75;13.00;;;3.30;99.90;;;;;;5070367;28;20253;-47
2022/12/05 13:00:08;;;;;;;19.27;11.32;;;3.20;99.90;;;;;;4983059;28;20272;-48
2022/12/05 13:02:47;;;;;;;19.73;12.70;;;3.30;99.90;;;;;;5070261;28;20209;-46
2022/12/05 13:05:34;;;;;;;20.50;12.18;;;3.30;99.90;;;;;;5070564;28;20213;-46
2022/12/05 13:08:11;;;;;;;19.77;13.38;;;3.20;99.90;;;;;;5070072;28;20200;-46
2022/12/05 13:10:42;;;;;;;18.80;12.57;;;3.20;99.90;;;;;;5070151;28;20178;-46